Vanquish — PHCU — position and weather

sailwx.info

Track history (hours):
 
Tides and Currents Weather Stations Pressure Air Temp Water Temp Dewpoint Dewpoint Depression Visibility Wind Speed Wind Dir Waves Ship Positions

Vanquish

Last reported at 2014-Sep-02 16:32 UTC. Time now 2014-Sep-02 21:28 UTC.
Position N 54°01' W 006°03'.

MMSI: 246138952.

Date/timePositionNaut miles runAvg speedWind from/ knotsBaromVisibWave heightAir tempDewpointWater temp
2014-Sep-02 16:32N 54°01' W 006°03'19110.0
2014-Sep-01 21:25N 51°24' W 003°04'9 9.9
2014-Sep-01 20:32N 51°28' W 002°52'6 6.3
2014-Sep-01 19:33N 51°30' W 002°43'0 0.3
2014-Sep-01 18:33N 51°30' W 002°42'0 0.0
2014-Sep-01 17:33N 51°30' W 002°42'0 0.0
2014-Sep-01 16:33N 51°30' W 002°42'0 0.0
2014-Sep-01 15:33N 51°30' W 002°42'0 0.0
2014-Sep-01 14:33N 51°30' W 002°42'0 0.0
2014-Sep-01 13:33N 51°30' W 002°42'0 0.0
2014-Sep-01 12:33N 51°30' W 002°42'0 0.0
2014-Sep-01 11:33N 51°30' W 002°42'0 0.0
2014-Sep-01 10:33N 51°30' W 002°42'0 0.0
2014-Sep-01 09:33N 51°30' W 002°42'0 0.0
2014-Sep-01 08:33N 51°30' W 002°42'0 0.0
2014-Sep-01 07:33N 51°30' W 002°42'0 0.0
2014-Sep-01 06:33N 51°30' W 002°42'0 0.0
2014-Sep-01 05:33N 51°30' W 002°42'0 0.0
2014-Sep-01 04:33N 51°30' W 002°42'0 0.0
2014-Sep-01 03:33N 51°30' W 002°42'0 0.0
2014-Sep-01 02:33N 51°30' W 002°42'0 0.0
2014-Sep-01 01:33N 51°30' W 002°42'0 0.0
2014-Sep-01 00:32N 51°30' W 002°42'0 0.0
2014-Aug-31 23:32N 51°30' W 002°42'0 0.0
2014-Aug-31 22:32N 51°30' W 002°42'0 0.0
2014-Aug-31 21:32N 51°30' W 002°42'0 0.0
2014-Aug-31 20:32N 51°30' W 002°42'0 0.0
2014-Aug-31 19:32N 51°30' W 002°42'0 0.0
2014-Aug-31 18:32N 51°30' W 002°42'0 0.0
2014-Aug-31 17:32N 51°30' W 002°42'0 0.0
2014-Aug-31 16:32N 51°30' W 002°42'0 0.0
2014-Aug-31 15:32N 51°30' W 002°42'0 0.2
2014-Aug-31 14:31N 51°31' W 002°42'0 0.0
2014-Aug-31 13:31N 51°31' W 002°42'0 0.0
2014-Aug-31 12:31N 51°31' W 002°42'0 0.0
2014-Aug-31 11:31N 51°31' W 002°42'0 0.0
2014-Aug-31 10:31N 51°31' W 002°42'0 0.0
2014-Aug-31 09:31N 51°31' W 002°42'0 0.0
2014-Aug-31 08:32N 51°31' W 002°42'0 0.0
2014-Aug-31 07:31N 51°31' W 002°42'0 0.0
2014-Aug-31 06:31N 51°31' W 002°42'0 0.0
2014-Aug-31 05:31N 51°31' W 002°42'0 0.0
2014-Aug-31 04:31N 51°31' W 002°42'0 0.0
2014-Aug-31 03:31N 51°31' W 002°42'0 0.0
2014-Aug-31 02:31N 51°31' W 002°42'0 0.0
2014-Aug-31 01:28N 51°31' W 002°42'0 0.0
2014-Aug-31 00:31N 51°31' W 002°42'0 0.0
2014-Aug-30 23:31N 51°31' W 002°42'0 0.0
2014-Aug-30 22:31N 51°31' W 002°42'0 0.0
2014-Aug-30 21:32N 51°31' W 002°42'1 0.6
2014-Aug-30 20:33N 51°30' W 002°43'6 6.5
2014-Aug-30 19:34N 51°28' W 002°53'184 8.0
2014-Aug-29 20:33N 53°53' W 005°59'11 0.4
2014-Aug-28 15:17N 54°03' W 006°08'810.6
2014-Aug-28 14:29N 53°55' W 006°01'18510.3
2014-Aug-27 20:33N 51°27' W 002°59'1010.4
2014-Aug-27 19:33N 51°30' W 002°43'0 0.3
2014-Aug-27 18:33N 51°30' W 002°42'0 0.0
2014-Aug-27 17:33N 51°30' W 002°42'0 0.0
2014-Aug-27 16:33N 51°30' W 002°42'0 0.0
2014-Aug-27 15:33N 51°30' W 002°42'0 0.0
2014-Aug-27 14:33N 51°30' W 002°42'0 0.0
2014-Aug-27 13:33N 51°30' W 002°42'0 0.0
2014-Aug-27 12:33N 51°30' W 002°42'0 0.0
2014-Aug-27 11:33N 51°30' W 002°42'0 0.0
2014-Aug-27 10:33N 51°30' W 002°42'0 0.0
2014-Aug-27 09:33N 51°30' W 002°42'0 0.0
2014-Aug-27 08:33N 51°30' W 002°42'0 0.0
2014-Aug-27 07:33N 51°30' W 002°42'0 0.0
2014-Aug-27 06:33N 51°30' W 002°42'0 0.0
2014-Aug-27 05:33N 51°30' W 002°42'0 0.0
2014-Aug-27 04:33N 51°30' W 002°42'0 0.0
2014-Aug-27 03:33N 51°30' W 002°42'0 0.0
2014-Aug-27 02:33N 51°30' W 002°42'0 0.0
2014-Aug-27 01:33N 51°30' W 002°42'0 0.0
2014-Aug-27 00:33N 51°30' W 002°42'0 0.0
2014-Aug-26 23:33N 51°30' W 002°42'0 0.0
2014-Aug-26 22:33N 51°30' W 002°42'0 0.0
2014-Aug-26 21:33N 51°30' W 002°42'0 0.4
2014-Aug-26 20:33N 51°30' W 002°43'7 7.4
2014-Aug-26 19:33N 51°28' W 002°54'186 8.1
2014-Aug-25 20:32N 53°57' W 005°59'4 0.1
2014-Aug-24 15:31N 54°00' W 006°02'18610.4
2014-Aug-23 21:33N 51°21' W 003°23'1413.9
2014-Aug-23 20:32N 51°26' W 003°01'1312.3
2014-Aug-23 19:31N 51°30' W 002°43'  
Track history (hours):
 
Tides and Currents Weather Stations Pressure Air Temp Water Temp Dewpoint Dewpoint Depression Visibility Wind Speed Wind Dir Waves Ship Positions

Vanquish

Last reported at 2014-Sep-02 16:32 UTC. Time now 2014-Sep-02 21:28 UTC.
Position N 54°01' W 006°03'.

MMSI: 246138952.

Date/timePositionNaut miles runAvg speedWind from/ knotsBaromVisibWave heightAir tempDewpointWater temp
2014-Sep-02 16:32N 54°01' W 006°03'19110.0
2014-Sep-01 21:25N 51°24' W 003°04'9 9.9
2014-Sep-01 20:32N 51°28' W 002°52'6 6.3
2014-Sep-01 19:33N 51°30' W 002°43'0 0.3
2014-Sep-01 18:33N 51°30' W 002°42'0 0.0
2014-Sep-01 17:33N 51°30' W 002°42'0 0.0
2014-Sep-01 16:33N 51°30' W 002°42'0 0.0
2014-Sep-01 15:33N 51°30' W 002°42'0 0.0
2014-Sep-01 14:33N 51°30' W 002°42'0 0.0
2014-Sep-01 13:33N 51°30' W 002°42'0 0.0
2014-Sep-01 12:33N 51°30' W 002°42'0 0.0
2014-Sep-01 11:33N 51°30' W 002°42'0 0.0
2014-Sep-01 10:33N 51°30' W 002°42'0 0.0
2014-Sep-01 09:33N 51°30' W 002°42'0 0.0
2014-Sep-01 08:33N 51°30' W 002°42'0 0.0
2014-Sep-01 07:33N 51°30' W 002°42'0 0.0
2014-Sep-01 06:33N 51°30' W 002°42'0 0.0
2014-Sep-01 05:33N 51°30' W 002°42'0 0.0
2014-Sep-01 04:33N 51°30' W 002°42'0 0.0
2014-Sep-01 03:33N 51°30' W 002°42'0 0.0
2014-Sep-01 02:33N 51°30' W 002°42'0 0.0
2014-Sep-01 01:33N 51°30' W 002°42'0 0.0
2014-Sep-01 00:32N 51°30' W 002°42'0 0.0
2014-Aug-31 23:32N 51°30' W 002°42'0 0.0
2014-Aug-31 22:32N 51°30' W 002°42'0 0.0
2014-Aug-31 21:32N 51°30' W 002°42'0 0.0
2014-Aug-31 20:32N 51°30' W 002°42'0 0.0
2014-Aug-31 19:32N 51°30' W 002°42'0 0.0
2014-Aug-31 18:32N 51°30' W 002°42'0 0.0
2014-Aug-31 17:32N 51°30' W 002°42'0 0.0
2014-Aug-31 16:32N 51°30' W 002°42'0 0.0
2014-Aug-31 15:32N 51°30' W 002°42'0 0.2
2014-Aug-31 14:31N 51°31' W 002°42'0 0.0
2014-Aug-31 13:31N 51°31' W 002°42'0 0.0
2014-Aug-31 12:31N 51°31' W 002°42'0 0.0
2014-Aug-31 11:31N 51°31' W 002°42'0 0.0
2014-Aug-31 10:31N 51°31' W 002°42'0 0.0
2014-Aug-31 09:31N 51°31' W 002°42'0 0.0
2014-Aug-31 08:32N 51°31' W 002°42'0 0.0
2014-Aug-31 07:31N 51°31' W 002°42'0 0.0
2014-Aug-31 06:31N 51°31' W 002°42'0 0.0
2014-Aug-31 05:31N 51°31' W 002°42'0 0.0
2014-Aug-31 04:31N 51°31' W 002°42'0 0.0
2014-Aug-31 03:31N 51°31' W 002°42'0 0.0
2014-Aug-31 02:31N 51°31' W 002°42'0 0.0
2014-Aug-31 01:28N 51°31' W 002°42'0 0.0
2014-Aug-31 00:31N 51°31' W 002°42'0 0.0
2014-Aug-30 23:31N 51°31' W 002°42'0 0.0
2014-Aug-30 22:31N 51°31' W 002°42'0 0.0
2014-Aug-30 21:32N 51°31' W 002°42'1 0.6
2014-Aug-30 20:33N 51°30' W 002°43'6 6.5
2014-Aug-30 19:34N 51°28' W 002°53'184 8.0
2014-Aug-29 20:33N 53°53' W 005°59'11 0.4
2014-Aug-28 15:17N 54°03' W 006°08'810.6
2014-Aug-28 14:29N 53°55' W 006°01'18510.3
2014-Aug-27 20:33N 51°27' W 002°59'1010.4
2014-Aug-27 19:33N 51°30' W 002°43'0 0.3
2014-Aug-27 18:33N 51°30' W 002°42'0 0.0
2014-Aug-27 17:33N 51°30' W 002°42'0 0.0
2014-Aug-27 16:33N 51°30' W 002°42'0 0.0
2014-Aug-27 15:33N 51°30' W 002°42'0 0.0
2014-Aug-27 14:33N 51°30' W 002°42'0 0.0
2014-Aug-27 13:33N 51°30' W 002°42'0 0.0
2014-Aug-27 12:33N 51°30' W 002°42'0 0.0
2014-Aug-27 11:33N 51°30' W 002°42'0 0.0
2014-Aug-27 10:33N 51°30' W 002°42'0 0.0
2014-Aug-27 09:33N 51°30' W 002°42'0 0.0
2014-Aug-27 08:33N 51°30' W 002°42'0 0.0
2014-Aug-27 07:33N 51°30' W 002°42'0 0.0
2014-Aug-27 06:33N 51°30' W 002°42'0 0.0
2014-Aug-27 05:33N 51°30' W 002°42'0 0.0
2014-Aug-27 04:33N 51°30' W 002°42'0 0.0
2014-Aug-27 03:33N 51°30' W 002°42'0 0.0
2014-Aug-27 02:33N 51°30' W 002°42'0 0.0
2014-Aug-27 01:33N 51°30' W 002°42'0 0.0
2014-Aug-27 00:33N 51°30' W 002°42'0 0.0
2014-Aug-26 23:33N 51°30' W 002°42'0 0.0
2014-Aug-26 22:33N 51°30' W 002°42'0 0.0
2014-Aug-26 21:33N 51°30' W 002°42'0 0.4
2014-Aug-26 20:33N 51°30' W 002°43'7 7.4
2014-Aug-26 19:33N 51°28' W 002°54'186 8.1
2014-Aug-25 20:32N 53°57' W 005°59'4 0.1
2014-Aug-24 15:31N 54°00' W 006°02'18610.4
2014-Aug-23 21:33N 51°21' W 003°23'1413.9
2014-Aug-23 20:32N 51°26' W 003°01'1312.3
2014-Aug-23 19:31N 51°30' W 002°43'  

Dump ship's entire track history